createdAt,value
2018-01-01T00:01:08.601Z,11.7
2018-01-01T00:02:18.559Z,11.73
2018-01-01T00:03:27.989Z,11.63
2018-01-01T00:04:37.672Z,11.63
2018-01-01T00:05:47.365Z,11.63
2018-01-01T00:06:56.808Z,11.7
2018-01-01T00:08:06.504Z,11.7
2018-01-01T00:09:16.464Z,11.67
2018-01-01T00:10:26.419Z,11.68
2018-01-01T00:11:36.108Z,11.63
2018-01-01T00:12:45.791Z,11.62
2018-01-01T00:13:55.482Z,11.63
2018-01-01T00:15:05.439Z,11.63
2018-01-01T00:16:15.130Z,11.65
2018-01-01T00:17:25.084Z,11.62
2018-01-01T00:18:35.050Z,11.62
2018-01-01T00:19:45.002Z,11.65
2018-01-01T00:20:54.702Z,11.65
2018-01-01T00:22:04.653Z,11.62
2018-01-01T00:23:14.599Z,11.62
2018-01-01T00:24:24.295Z,11.65
2018-01-01T00:25:33.981Z,11.59
2018-01-01T00:26:43.931Z,11.6
2018-01-01T00:27:53.874Z,11.6
2018-01-01T00:29:03.818Z,11.65
2018-01-01T00:30:13.783Z,11.71
2018-01-01T00:31:23.749Z,11.67
2018-01-01T00:32:33.690Z,11.62
2018-01-01T00:33:43.387Z,11.55
2018-01-01T00:34:53.334Z,11.63
2018-01-01T00:36:03.032Z,11.59
2018-01-01T00:37:13.012Z,11.65
2018-01-01T00:38:22.971Z,11.62
2018-01-01T00:39:32.927Z,11.56
2018-01-01T00:40:42.636Z,11.65
2018-01-01T00:41:52.591Z,11.56
2018-01-01T00:43:02.534Z,11.49
2018-01-01T00:44:12.479Z,11.59
2018-01-01T00:45:22.178Z,11.58
2018-01-01T00:46:32.136Z,11.6
2018-01-01T00:47:42.091Z,11.65
2018-01-01T00:48:51.802Z,11.59
2018-01-01T00:50:01.751Z,11.52
2018-01-01T00:51:11.445Z,11.56
2018-01-01T00:52:21.137Z,11.51
2018-01-01T00:53:31.179Z,11.48
2018-01-01T00:54:40.869Z,11.51
2018-01-01T00:55:50.819Z,11.51
2018-01-01T00:57:00.508Z,11.49
2018-01-01T00:58:10.457Z,11.55
2018-01-01T00:59:19.967Z,11.49
2018-01-01T01:00:29.939Z,11.49
2018-01-01T01:01:39.907Z,11.45
2018-01-01T01:02:49.656Z,11.55
2018-01-01T01:03:59.665Z,11.53
2018-01-01T01:05:09.108Z,11.53
2018-01-01T01:06:19.062Z,11.45
2018-01-01T01:07:29.010Z,11.44
2018-01-01T01:08:38.962Z,11.49
2018-01-01T01:09:48.951Z,11.44
2018-01-01T01:10:58.897Z,11.52
2018-01-01T01:12:08.864Z,11.41
2018-01-01T01:13:18.811Z,11.34
2018-01-01T01:14:28.499Z,11.38
2018-01-01T01:15:38.517Z,11.44
2018-01-01T01:16:48.467Z,11.48
2018-01-01T01:17:58.415Z,11.4
2018-01-01T01:19:08.359Z,11.37
2018-01-01T01:20:18.315Z,11.41
2018-01-01T01:21:28.264Z,11.37
2018-01-01T01:22:37.447Z,11.34
2018-01-01T01:23:47.144Z,11.35
2018-01-01T01:24:57.085Z,11.35
2018-01-01T01:26:07.047Z,11.43
2018-01-01T01:27:16.987Z,11.37
2018-01-01T01:28:26.933Z,11.38
2018-01-01T01:29:36.627Z,11.27
2018-01-01T01:30:46.323Z,11.26
2018-01-01T01:31:56.016Z,11.3
2018-01-01T01:33:06.071Z,11.27
2018-01-01T01:34:15.779Z,11.25
2018-01-01T01:35:25.482Z,11.23
2018-01-01T01:36:35.173Z,11.27
2018-01-01T01:37:45.136Z,11.2
2018-01-01T01:38:55.083Z,11.27
2018-01-01T01:40:04.797Z,11.18
2018-01-01T01:41:14.744Z,11.19
2018-01-01T01:42:24.693Z,11.22
2018-01-01T01:43:34.452Z,11.25
2018-01-01T01:44:44.388Z,11.25
2018-01-01T01:45:54.359Z,11.16
2018-01-01T01:47:04.061Z,11.18
2018-01-01T01:48:14.020Z,11.2
2018-01-01T01:49:23.963Z,11.13
2018-01-01T01:50:33.915Z,11.22
2018-01-01T01:51:43.359Z,11.18
2018-01-01T01:52:53.303Z,11.18
2018-01-01T01:54:03.015Z,11.19
2018-01-01T01:55:12.966Z,11.19
2018-01-01T01:56:22.661Z,11.22
2018-01-01T01:57:32.341Z,11.2
2018-01-01T01:58:42.302Z,11.19
2018-01-01T01:59:52.252Z,11.23
2018-01-01T02:01:01.953Z,11.16
2018-01-01T02:02:11.661Z,11.13
2018-01-01T02:03:21.354Z,11.13
2018-01-01T02:04:31.298Z,11.23
2018-01-01T02:05:40.734Z,11.18
2018-01-01T02:06:50.696Z,11.18
2018-01-01T02:08:00.668Z,11.15
2018-01-01T02:09:10.612Z,11.1
2018-01-01T02:10:20.567Z,11.16
2018-01-01T02:11:30.524Z,11.13
2018-01-01T02:12:40.476Z,11.18
2018-01-01T02:13:50.439Z,11.12
2018-01-01T02:15:00.114Z,11.13
2018-01-01T02:16:09.799Z,11.13
2018-01-01T02:17:19.756Z,11.05
2018-01-01T02:18:29.455Z,11.04
2018-01-01T02:19:39.159Z,11.1
2018-01-01T02:20:49.102Z,11.02
2018-01-01T02:21:59.069Z,11.01
2018-01-01T02:23:08.761Z,10.97
2018-01-01T02:24:18.711Z,10.97
2018-01-01T02:25:28.671Z,10.97
2018-01-01T02:26:38.631Z,11.07
2018-01-01T02:27:48.592Z,11.01
2018-01-01T02:28:58.537Z,11.08
2018-01-01T02:30:08.492Z,11.07
2018-01-01T02:31:18.448Z,11.01
2018-01-01T02:32:28.409Z,11.02
2018-01-01T02:33:38.100Z,11.08
2018-01-01T02:34:48.052Z,11.1
2018-01-01T02:35:57.740Z,11.2
2018-01-01T02:37:07.435Z,11.15
2018-01-01T02:38:17.386Z,11.22
2018-01-01T02:39:27.072Z,11.35
2018-01-01T02:40:36.774Z,11.33
2018-01-01T02:41:46.471Z,11.27
2018-01-01T02:42:56.430Z,11.27
2018-01-01T02:44:06.389Z,11.25
2018-01-01T02:45:16.405Z,11.26
2018-01-01T02:46:26.114Z,11.27
2018-01-01T02:47:36.060Z,11.35
2018-01-01T02:48:46.008Z,11.34
2018-01-01T02:49:55.450Z,11.41
2018-01-01T02:51:05.148Z,11.44
2018-01-01T02:52:15.102Z,11.44
2018-01-01T02:53:25.052Z,11.43
2018-01-01T02:54:34.483Z,11.34
2018-01-01T02:55:44.450Z,11.45
2018-01-01T02:56:54.139Z,11.38
2018-01-01T02:58:04.108Z,11.48
2018-01-01T02:59:14.054Z,11.45
2018-01-01T03:00:24.013Z,11.45
2018-01-01T03:01:33.957Z,11.48
2018-01-01T03:02:43.895Z,11.49
2018-01-01T03:03:53.586Z,11.51
2018-01-01T03:05:03.522Z,11.52
2018-01-01T03:06:13.472Z,11.58
2018-01-01T03:07:23.427Z,11.59
2018-01-01T03:08:33.134Z,11.45
2018-01-01T03:09:42.840Z,11.52
2018-01-01T03:10:52.784Z,11.49
2018-01-01T03:12:02.213Z,11.52
2018-01-01T03:13:12.163Z,11.45
2018-01-01T03:14:22.106Z,11.48
2018-01-01T03:15:31.533Z,11.49
2018-01-01T03:16:41.235Z,11.49
2018-01-01T03:17:50.923Z,11.41
2018-01-01T03:19:00.877Z,11.45
2018-01-01T03:20:10.559Z,11.51
2018-01-01T03:21:20.506Z,11.4
2018-01-01T03:22:30.514Z,11.49
2018-01-01T03:23:40.473Z,11.44
2018-01-01T03:24:50.421Z,11.41
2018-01-01T03:26:00.371Z,11.43
2018-01-01T03:27:10.076Z,11.27
2018-01-01T03:28:20.273Z,11.31
2018-01-01T03:29:30.211Z,11.27
2018-01-01T03:30:39.918Z,11.26
2018-01-01T03:31:49.605Z,11.25
2018-01-01T03:32:59.546Z,11.25
2018-01-01T03:34:09.497Z,11.23
2018-01-01T03:35:19.186Z,11.19
2018-01-01T03:36:29.149Z,11.19
2018-01-01T03:37:38.841Z,11.15
2018-01-01T03:38:48.834Z,11.12
2018-01-01T03:39:58.266Z,11.22
2018-01-01T03:41:08.213Z,11.12
2018-01-01T03:42:17.912Z,11.05
2018-01-01T03:43:27.862Z,11.01
2018-01-01T03:44:37.822Z,11.02
2018-01-01T03:45:47.758Z,11.01
2018-01-01T03:46:57.448Z,11.07
2018-01-01T03:48:07.378Z,11
2018-01-01T03:49:17.313Z,11.05
2018-01-01T03:50:27.268Z,10.9
2018-01-01T03:51:36.959Z,10.98
2018-01-01T03:52:46.900Z,10.95
2018-01-01T03:53:56.608Z,10.9
2018-01-01T03:55:06.570Z,10.92
2018-01-01T03:56:16.519Z,10.86
2018-01-01T03:57:26.468Z,10.87
2018-01-01T03:58:36.153Z,10.82
2018-01-01T03:59:45.845Z,10.77
2018-01-01T04:00:55.784Z,10.77
2018-01-01T04:02:05.468Z,10.79
2018-01-01T04:03:15.415Z,10.82
2018-01-01T04:04:25.356Z,10.69
2018-01-01T04:05:35.055Z,10.65
2018-01-01T04:06:44.993Z,10.72
2018-01-01T04:07:54.688Z,10.67
2018-01-01T04:09:04.386Z,10.67
2018-01-01T04:10:14.075Z,10.64
2018-01-01T04:11:24.026Z,10.67
2018-01-01T04:12:33.969Z,10.58
2018-01-01T04:13:43.909Z,10.58
2018-01-01T04:14:53.857Z,10.57
2018-01-01T04:16:03.562Z,10.55
2018-01-01T04:17:13.506Z,10.57
2018-01-01T04:18:23.453Z,10.64
2018-01-01T04:19:33.151Z,10.59
2018-01-01T04:20:43.103Z,10.61
2018-01-01T04:21:53.044Z,10.64
2018-01-01T04:23:02.739Z,10.61
2018-01-01T04:24:12.437Z,10.53
2018-01-01T04:25:22.400Z,10.51
2018-01-01T04:26:32.352Z,10.57
2018-01-01T04:27:42.287Z,10.53
2018-01-01T04:28:52.245Z,10.58
2018-01-01T04:30:02.195Z,10.57
2018-01-01T04:31:11.877Z,10.53
2018-01-01T04:32:21.576Z,10.57
2018-01-01T04:33:31.521Z,10.49
2018-01-01T04:34:41.467Z,10.55
2018-01-01T04:35:51.155Z,10.49
2018-01-01T04:37:00.859Z,10.41
2018-01-01T04:38:10.583Z,10.45
2018-01-01T04:39:20.525Z,10.45
2018-01-01T04:40:30.212Z,10.38
2018-01-01T04:41:40.161Z,10.41
2018-01-01T04:42:49.858Z,10.34
2018-01-01T04:43:59.814Z,10.39
2018-01-01T04:45:09.760Z,10.33
2018-01-01T04:46:19.456Z,10.43
2018-01-01T04:47:29.148Z,10.33
2018-01-01T04:48:39.093Z,10.34
2018-01-01T04:49:48.537Z,10.39
2018-01-01T04:50:58.232Z,10.33
2018-01-01T04:52:07.927Z,10.31
2018-01-01T04:53:17.619Z,10.25
2018-01-01T04:54:27.326Z,10.2
2018-01-01T04:55:37.019Z,10.28
2018-01-01T04:56:46.962Z,10.25
2018-01-01T04:57:56.646Z,10.2
2018-01-01T04:59:06.603Z,10.33
2018-01-01T05:00:16.555Z,10.21
2018-01-01T05:01:26.492Z,10.24
2018-01-01T05:02:36.437Z,10.13
2018-01-01T05:03:46.123Z,10.17
2018-01-01T05:04:56.065Z,10.1
2018-01-01T05:06:06.012Z,10.07
2018-01-01T05:07:15.701Z,10.09
2018-01-01T05:08:25.650Z,10.03
2018-01-01T05:09:35.594Z,10
2018-01-01T05:10:45.304Z,9.97
2018-01-01T05:11:55.256Z,9.99
2018-01-01T05:13:05.231Z,9.99
2018-01-01T05:14:14.943Z,9.92
2018-01-01T05:15:24.891Z,9.97
2018-01-01T05:16:34.834Z,9.92
2018-01-01T05:17:44.794Z,9.91
2018-01-01T05:18:54.741Z,10
2018-01-01T05:20:04.191Z,9.95
2018-01-01T05:21:14.137Z,9.97
2018-01-01T05:22:24.071Z,9.94
2018-01-01T05:23:33.746Z,10
2018-01-01T05:24:43.182Z,9.99
2018-01-01T05:25:53.117Z,9.97
2018-01-01T05:27:03.109Z,10.02
2018-01-01T05:28:12.789Z,10.02
2018-01-01T05:29:22.772Z,9.97
2018-01-01T05:30:32.714Z,9.95
2018-01-01T05:31:42.672Z,9.94
2018-01-01T05:32:52.856Z,9.99
2018-01-01T05:34:02.815Z,10.02
2018-01-01T05:35:12.505Z,9.99
2018-01-01T05:36:22.187Z,10
2018-01-01T05:37:32.130Z,10.03
2018-01-01T05:38:41.823Z,9.99
2018-01-01T05:39:51.763Z,10.02
2018-01-01T05:41:01.446Z,10
2018-01-01T05:42:11.405Z,10.02
2018-01-01T05:43:21.356Z,10
2018-01-01T05:44:31.311Z,10.05
2018-01-01T05:45:41.261Z,9.97
2018-01-01T05:46:51.209Z,10.02
2018-01-01T05:48:01.153Z,10.06
2018-01-01T05:49:11.104Z,10.07
2018-01-01T05:50:21.039Z,9.95
2018-01-01T05:51:30.746Z,10.07
2018-01-01T05:52:40.684Z,10.09
2018-01-01T05:53:50.711Z,9.99
2018-01-01T05:55:00.666Z,10.03
2018-01-01T05:56:10.620Z,10.03
2018-01-01T05:57:20.061Z,10.05
2018-01-01T05:58:29.747Z,10.09
2018-01-01T05:59:39.440Z,10.09
2018-01-01T06:00:49.390Z,10.17
2018-01-01T06:01:59.093Z,10.12
2018-01-01T06:03:08.532Z,10.09
2018-01-01T06:04:18.473Z,10.07
2018-01-01T06:05:27.905Z,10.09
2018-01-01T06:06:37.592Z,10.09
2018-01-01T06:07:47.542Z,10.05
2018-01-01T06:08:57.489Z,10.02
2018-01-01T06:10:07.436Z,9.99
2018-01-01T06:11:16.864Z,9.99
2018-01-01T06:12:26.542Z,9.99
2018-01-01T06:13:36.224Z,9.99
2018-01-01T06:14:45.924Z,9.99
2018-01-01T06:15:55.873Z,10.02
2018-01-01T06:17:05.818Z,10
2018-01-01T06:18:15.771Z,10.02
2018-01-01T06:19:25.483Z,10.12
2018-01-01T06:20:35.175Z,10.09
2018-01-01T06:21:44.880Z,10.21
2018-01-01T06:22:54.829Z,10.05
2018-01-01T06:24:04.797Z,10.15
2018-01-01T06:25:14.729Z,10.07
2018-01-01T06:26:24.668Z,10.07
2018-01-01T06:27:34.101Z,10.1
2018-01-01T06:28:43.791Z,10.06
2018-01-01T06:29:53.733Z,10.09
2018-01-01T06:31:03.675Z,10.07
2018-01-01T06:32:13.628Z,10.03
2018-01-01T06:33:23.063Z,10.09
2018-01-01T06:34:32.491Z,9.99
2018-01-01T06:35:42.428Z,9.95
2018-01-01T06:36:52.140Z,9.99
2018-01-01T06:38:01.569Z,9.95
2018-01-01T06:39:11.519Z,9.97
2018-01-01T06:40:21.251Z,9.99
2018-01-01T06:41:31.188Z,9.99
2018-01-01T06:42:40.872Z,9.97
2018-01-01T06:43:50.825Z,9.94
2018-01-01T06:45:00.784Z,9.85
2018-01-01T06:46:10.731Z,9.9
2018-01-01T06:47:20.667Z,9.87
2018-01-01T06:48:30.623Z,9.94
2018-01-01T06:49:40.573Z,9.94
2018-01-01T06:50:50.542Z,9.91
2018-01-01T06:52:00.493Z,9.84
2018-01-01T06:53:10.184Z,9.87
2018-01-01T06:54:19.614Z,9.84
2018-01-01T06:55:29.303Z,9.85
2018-01-01T06:56:38.995Z,9.81
2018-01-01T06:57:48.679Z,9.82
2018-01-01T06:58:58.673Z,9.81
2018-01-01T07:00:08.609Z,9.81
2018-01-01T07:01:18.046Z,9.81
2018-01-01T07:02:27.756Z,9.82
2018-01-01T07:03:37.436Z,9.82
2018-01-01T07:04:47.276Z,9.73
2018-01-01T07:05:57.221Z,9.72
2018-01-01T07:07:06.921Z,9.74
2018-01-01T07:08:16.623Z,9.7
2018-01-01T07:09:26.569Z,9.66
2018-01-01T07:10:36.258Z,9.67
2018-01-01T07:11:46.205Z,9.64
2018-01-01T07:12:56.157Z,9.62
2018-01-01T07:14:06.127Z,9.59
2018-01-01T07:15:15.809Z,9.58
2018-01-01T07:16:25.750Z,9.59
2018-01-01T07:17:35.462Z,9.54
2018-01-01T07:18:45.401Z,9.58
2018-01-01T07:19:55.353Z,9.58
2018-01-01T07:21:05.301Z,9.58
2018-01-01T07:22:15.256Z,9.52
2018-01-01T07:23:24.949Z,9.54
2018-01-01T07:24:34.898Z,9.59
2018-01-01T07:25:44.852Z,9.49
2018-01-01T07:26:54.797Z,9.42
2018-01-01T07:28:04.496Z,9.51
2018-01-01T07:29:14.444Z,9.42
2018-01-01T07:30:24.133Z,9.47
2018-01-01T07:31:34.081Z,9.39
2018-01-01T07:32:43.768Z,9.4
2018-01-01T07:33:53.460Z,9.31
2018-01-01T07:35:03.410Z,9.3
2018-01-01T07:36:13.369Z,9.37
2018-01-01T07:37:23.048Z,9.27
2018-01-01T07:38:33.015Z,9.26
2018-01-01T07:39:42.194Z,9.33
2018-01-01T07:40:52.151Z,9.24
2018-01-01T07:42:02.099Z,9.26
2018-01-01T07:43:11.851Z,9.26
2018-01-01T07:44:21.814Z,9.27
2018-01-01T07:45:31.750Z,9.24
2018-01-01T07:46:41.177Z,9.24
2018-01-01T07:47:50.866Z,9.31
2018-01-01T07:49:00.551Z,9.27
2018-01-01T07:50:10.263Z,9.19
2018-01-01T07:51:19.949Z,9.26
2018-01-01T07:52:29.895Z,9.19
2018-01-01T07:53:39.853Z,9.13
2018-01-01T07:54:49.534Z,9.15
2018-01-01T07:55:59.495Z,9.08
2018-01-01T07:57:08.939Z,9.12
2018-01-01T07:58:18.384Z,9.13
2018-01-01T07:59:28.323Z,9.03
2018-01-01T08:00:38.302Z,9.03
2018-01-01T08:01:47.990Z,9.02
2018-01-01T08:02:57.997Z,8.97
2018-01-01T08:04:07.948Z,8.99
2018-01-01T08:05:17.891Z,8.9
2018-01-01T08:06:27.323Z,9.02
2018-01-01T08:07:37.010Z,9
2018-01-01T08:08:46.959Z,8.99
2018-01-01T08:09:56.652Z,9.02
2018-01-01T08:11:06.612Z,9.19
2018-01-01T08:12:16.555Z,9.19
2018-01-01T08:13:26.252Z,9.26
2018-01-01T08:14:36.237Z,9.3
2018-01-01T08:15:46.181Z,9.36
2018-01-01T08:16:56.279Z,9.29
2018-01-01T08:18:06.237Z,9.26
2018-01-01T08:19:16.193Z,9.31
2018-01-01T08:20:25.882Z,9.26
2018-01-01T08:21:35.585Z,9.26
2018-01-01T08:22:45.523Z,9.29
2018-01-01T08:23:55.460Z,9.44
2018-01-01T08:25:05.146Z,9.48
2018-01-01T08:26:15.105Z,9.47
2018-01-01T08:27:25.058Z,9.51
2018-01-01T08:28:35.008Z,9.55
2018-01-01T08:29:44.951Z,9.54
2018-01-01T08:30:54.645Z,9.64
2018-01-01T08:32:04.591Z,9.66
2018-01-01T08:33:14.544Z,9.67
2018-01-01T08:34:24.243Z,9.76
2018-01-01T08:35:34.193Z,9.81
2018-01-01T08:36:43.876Z,9.81
2018-01-01T08:37:53.826Z,9.76
2018-01-01T08:39:03.770Z,9.67
2018-01-01T08:40:13.737Z,9.76
2018-01-01T08:41:23.706Z,9.63
2018-01-01T08:42:33.657Z,9.66
2018-01-01T08:43:43.606Z,9.72
2018-01-01T08:44:53.558Z,9.76
2018-01-01T08:46:02.991Z,9.74
2018-01-01T08:47:12.947Z,9.84
2018-01-01T08:48:22.898Z,9.67
2018-01-01T08:49:32.901Z,9.62
2018-01-01T08:50:42.856Z,9.58
2018-01-01T08:51:52.544Z,9.59
2018-01-01T08:53:02.487Z,9.55
2018-01-01T08:54:12.169Z,9.67
2018-01-01T08:55:21.879Z,9.82
2018-01-01T08:56:31.568Z,9.84
2018-01-01T08:57:41.516Z,9.99
2018-01-01T08:58:51.473Z,9.99
2018-01-01T09:00:01.424Z,9.94
2018-01-01T09:01:11.160Z,9.9
2018-01-01T09:02:21.127Z,9.99
2018-01-01T09:03:31.086Z,9.99
2018-01-01T09:04:41.040Z,10
2018-01-01T09:05:51.002Z,9.99
2018-01-01T09:07:00.967Z,9.92
2018-01-01T09:08:10.672Z,9.95
2018-01-01T09:09:20.618Z,9.84
2018-01-01T09:10:30.574Z,9.82
2018-01-01T09:11:40.532Z,9.82
2018-01-01T09:12:50.477Z,9.82
2018-01-01T09:14:00.171Z,9.72
2018-01-01T09:15:09.865Z,9.82
2018-01-01T09:16:19.561Z,9.8
2018-01-01T09:17:29.512Z,9.91
2018-01-01T09:18:39.461Z,9.97
2018-01-01T09:19:49.157Z,10.05
2018-01-01T09:20:59.106Z,10.09
2018-01-01T09:22:08.803Z,10.06
2018-01-01T09:23:18.749Z,10.31
2018-01-01T09:24:28.441Z,10.21
2018-01-01T09:25:38.134Z,10.23
2018-01-01T09:26:48.082Z,10.24
2018-01-01T09:27:58.028Z,10.21
2018-01-01T09:29:07.725Z,10.25
2018-01-01T09:30:17.689Z,10.38
2018-01-01T09:31:27.382Z,10.36
2018-01-01T09:32:36.828Z,10.38
2018-01-01T09:33:46.778Z,10.34
2018-01-01T09:34:56.787Z,10.36
2018-01-01T09:36:06.770Z,10.28
2018-01-01T09:37:16.731Z,10.3
2018-01-01T09:38:26.691Z,10.33
2018-01-01T09:39:36.713Z,10.25
2018-01-01T09:40:46.669Z,10.39
2018-01-01T09:41:56.380Z,10.49
2018-01-01T09:43:06.327Z,10.42
2018-01-01T09:44:15.794Z,10.42
2018-01-01T09:45:25.485Z,10.43
2018-01-01T09:46:35.196Z,10.55
2018-01-01T09:47:45.176Z,10.59
2018-01-01T09:48:55.135Z,10.65
2018-01-01T09:50:05.081Z,10.64
2018-01-01T09:51:15.028Z,10.69
2018-01-01T09:52:24.979Z,10.82
2018-01-01T09:53:34.685Z,10.8
2018-01-01T09:54:44.634Z,10.84
2018-01-01T09:55:54.336Z,10.84
2018-01-01T09:57:04.047Z,10.82
2018-01-01T09:58:14.017Z,10.79
2018-01-01T09:59:23.968Z,10.75
2018-01-01T10:00:33.408Z,10.61
2018-01-01T10:01:43.363Z,10.67
2018-01-01T10:02:53.330Z,10.55
2018-01-01T10:04:03.035Z,10.53
2018-01-01T10:05:12.999Z,10.46
2018-01-01T10:06:22.703Z,10.42
2018-01-01T10:07:32.722Z,10.49
2018-01-01T10:08:42.691Z,10.57
2018-01-01T10:09:52.653Z,10.61
2018-01-01T10:11:02.340Z,10.68
2018-01-01T10:12:12.300Z,10.67
2018-01-01T10:13:21.998Z,10.68
2018-01-01T10:14:31.964Z,10.55
2018-01-01T10:15:41.652Z,10.46
2018-01-01T10:16:51.609Z,10.58
2018-01-01T10:18:01.308Z,10.62
2018-01-01T10:19:11.009Z,10.69
2018-01-01T10:20:20.697Z,10.82
2018-01-01T10:21:30.400Z,10.75
2018-01-01T10:22:40.102Z,10.84
2018-01-01T10:23:49.803Z,10.75
2018-01-01T10:24:59.761Z,10.77
2018-01-01T10:26:09.720Z,10.72
2018-01-01T10:27:19.437Z,10.75
2018-01-01T10:28:29.378Z,10.89
2018-01-01T10:29:39.098Z,10.77
2018-01-01T10:30:48.837Z,10.67
2018-01-01T10:31:58.794Z,10.61
2018-01-01T10:33:08.482Z,10.43
2018-01-01T10:34:18.481Z,10.39
2018-01-01T10:35:28.428Z,10.3
2018-01-01T10:36:38.133Z,10.25
2018-01-01T10:37:48.074Z,10.2
2018-01-01T10:38:58.028Z,10.25
2018-01-01T10:40:07.982Z,10.09
2018-01-01T10:41:17.940Z,10.13
2018-01-01T10:42:27.894Z,9.99
2018-01-01T10:43:37.390Z,10.02
2018-01-01T10:44:47.096Z,9.99
2018-01-01T10:45:57.040Z,9.95
2018-01-01T10:47:06.738Z,9.95
2018-01-01T10:48:16.445Z,9.88
2018-01-01T10:49:26.156Z,9.91
2018-01-01T10:50:36.128Z,9.88
2018-01-01T10:51:45.858Z,9.84
2018-01-01T10:52:55.549Z,9.82
2018-01-01T10:54:05.243Z,9.74
2018-01-01T10:55:15.201Z,9.76
2018-01-01T10:56:25.156Z,9.7
2018-01-01T10:57:35.116Z,9.74
2018-01-01T10:58:45.059Z,9.74
2018-01-01T10:59:54.498Z,9.77
2018-01-01T11:01:04.463Z,9.82
2018-01-01T11:02:14.154Z,9.66
2018-01-01T11:03:23.857Z,9.69
2018-01-01T11:04:33.809Z,9.74
2018-01-01T11:05:43.765Z,9.72
2018-01-01T11:06:53.977Z,9.69
2018-01-01T11:08:03.930Z,9.67
2018-01-01T11:09:13.892Z,9.8
2018-01-01T11:10:23.839Z,9.8
2018-01-01T11:11:33.273Z,9.85
2018-01-01T11:12:43.226Z,9.88
2018-01-01T11:13:53.169Z,9.81
2018-01-01T11:15:02.872Z,9.88
2018-01-01T11:16:12.559Z,9.9
2018-01-01T11:17:22.516Z,9.95
2018-01-01T11:18:32.477Z,10.02
2018-01-01T11:19:42.455Z,9.92
2018-01-01T11:20:52.404Z,9.92
2018-01-01T11:22:02.352Z,9.94
2018-01-01T11:23:12.079Z,9.88
2018-01-01T11:24:22.040Z,9.85
2018-01-01T11:25:31.755Z,9.76
2018-01-01T11:26:41.202Z,9.7
2018-01-01T11:27:50.903Z,9.73
2018-01-01T11:29:00.594Z,9.69
2018-01-01T11:30:10.547Z,9.81
2018-01-01T11:31:20.512Z,9.8
2018-01-01T11:32:30.213Z,9.81
2018-01-01T11:33:40.214Z,9.81
2018-01-01T11:34:50.171Z,9.84
2018-01-01T11:35:59.873Z,9.84
2018-01-01T11:37:09.565Z,9.84
2018-01-01T11:38:19.517Z,9.88
2018-01-01T11:39:29.521Z,9.9
2018-01-01T11:40:39.493Z,9.94
2018-01-01T11:41:48.927Z,10.03
2018-01-01T11:42:58.879Z,10.23
2018-01-01T11:44:08.841Z,10.42
2018-01-01T11:45:18.806Z,10.53
2018-01-01T11:46:28.242Z,10.68
2018-01-01T11:47:38.190Z,10.8
2018-01-01T11:48:47.879Z,10.89
2018-01-01T11:49:57.342Z,10.98
2018-01-01T11:51:06.786Z,11.04
2018-01-01T11:52:16.495Z,11
2018-01-01T11:53:26.195Z,11.16
2018-01-01T11:54:35.892Z,11.16
2018-01-01T11:55:45.868Z,11.04
2018-01-01T11:56:55.568Z,10.98
2018-01-01T11:58:05.269Z,10.75
2018-01-01T11:59:14.967Z,10.55
2018-01-01T12:00:24.924Z,10.38
2018-01-01T12:01:34.628Z,10.25
2018-01-01T12:02:44.073Z,10.25
2018-01-01T12:03:54.021Z,10.21
2018-01-01T12:05:03.463Z,10.2
2018-01-01T12:06:13.157Z,10.15
2018-01-01T12:07:22.852Z,10.24
2018-01-01T12:08:32.806Z,10.23
2018-01-01T12:09:42.521Z,10.42
2018-01-01T12:10:52.223Z,10.41
2018-01-01T12:12:02.182Z,10.43
2018-01-01T12:13:11.614Z,10.33
2018-01-01T12:14:21.324Z,10.42
2018-01-01T12:15:31.292Z,10.3
2018-01-01T12:16:40.989Z,10.25
2018-01-01T12:17:50.946Z,10.24
2018-01-01T12:19:00.898Z,10.24
2018-01-01T12:20:10.589Z,10.15
2018-01-01T12:21:20.541Z,10.09
2018-01-01T12:22:30.501Z,10.06
2018-01-01T12:23:40.292Z,10.05
2018-01-01T12:24:49.979Z,10.03
2018-01-01T12:25:59.945Z,10
2018-01-01T12:27:09.892Z,9.94
2018-01-01T12:28:19.853Z,9.94
2018-01-01T12:29:29.805Z,9.88
2018-01-01T12:30:39.502Z,9.85
2018-01-01T12:31:49.208Z,9.8
2018-01-01T12:32:59.168Z,9.74
2018-01-01T12:34:09.374Z,9.67
2018-01-01T12:35:18.816Z,9.69
2018-01-01T12:36:28.861Z,9.74
2018-01-01T12:37:38.558Z,9.63
2018-01-01T12:38:48.504Z,9.54
2018-01-01T12:39:58.452Z,9.67
2018-01-01T12:41:08.154Z,9.69
2018-01-01T12:42:18.127Z,9.64
2018-01-01T12:43:27.834Z,9.55
2018-01-01T12:44:37.808Z,9.63
2018-01-01T12:45:47.807Z,9.55
2018-01-01T12:46:57.754Z,9.59
2018-01-01T12:48:07.746Z,9.59
2018-01-01T12:49:17.712Z,9.59
2018-01-01T12:50:27.145Z,9.56
2018-01-01T12:51:37.092Z,9.59
2018-01-01T12:52:47.041Z,9.59
2018-01-01T12:53:56.755Z,9.58
2018-01-01T12:55:06.701Z,9.56
2018-01-01T12:56:16.649Z,9.56
2018-01-01T12:57:26.615Z,9.59
2018-01-01T12:58:36.569Z,9.58
2018-01-01T12:59:46.309Z,9.55
2018-01-01T13:00:56.260Z,9.56
2018-01-01T13:02:05.975Z,9.59
2018-01-01T13:03:15.928Z,9.58
2018-01-01T13:04:25.896Z,9.55
2018-01-01T13:05:35.864Z,9.62
2018-01-01T13:06:45.062Z,9.54
2018-01-01T13:07:54.761Z,9.58
2018-01-01T13:09:04.472Z,9.51
2018-01-01T13:10:14.419Z,9.51
2018-01-01T13:11:24.392Z,9.59
2018-01-01T13:12:34.098Z,9.51
2018-01-01T13:13:44.062Z,9.55
2018-01-01T13:14:53.998Z,9.51
2018-01-01T13:16:03.959Z,9.58
2018-01-01T13:17:13.924Z,9.54
2018-01-01T13:18:23.916Z,9.51
2018-01-01T13:19:33.615Z,9.59
2018-01-01T13:20:43.586Z,9.59
2018-01-01T13:21:53.536Z,9.56
2018-01-01T13:23:03.233Z,9.55
2018-01-01T13:24:13.200Z,9.55
2018-01-01T13:25:23.161Z,9.52
2018-01-01T13:26:33.115Z,9.4
2018-01-01T13:27:42.828Z,9.49
2018-01-01T13:28:52.556Z,9.44
2018-01-01T13:30:02.516Z,9.4
2018-01-01T13:31:12.505Z,9.36
2018-01-01T13:32:22.481Z,9.29
2018-01-01T13:33:32.194Z,9.37
2018-01-01T13:34:41.888Z,9.26
2018-01-01T13:35:51.877Z,9.26
2018-01-01T13:37:01.838Z,9.27
2018-01-01T13:38:11.789Z,9.45
2018-01-01T13:39:21.745Z,9.44
2018-01-01T13:40:31.723Z,9.62
2018-01-01T13:41:41.680Z,9.64
2018-01-01T13:42:51.117Z,9.66
2018-01-01T13:44:01.075Z,9.59
2018-01-01T13:45:11.045Z,9.54
2018-01-01T13:46:21.033Z,9.63
2018-01-01T13:47:30.759Z,9.63
2018-01-01T13:48:40.696Z,9.62
2018-01-01T13:49:50.137Z,9.44
2018-01-01T13:51:00.090Z,9.47
2018-01-01T13:52:09.796Z,9.44
2018-01-01T13:53:19.743Z,9.4
2018-01-01T13:54:29.688Z,9.24
2018-01-01T13:55:39.380Z,9.22
2018-01-01T13:56:49.334Z,9.24
2018-01-01T13:57:59.304Z,9.22
2018-01-01T13:59:09.015Z,9.26
2018-01-01T14:00:18.800Z,9.22
2018-01-01T14:01:28.760Z,9.21
2018-01-01T14:02:38.464Z,9.21
2018-01-01T14:03:47.640Z,9.19
2018-01-01T14:04:57.600Z,9.15
2018-01-01T14:06:07.304Z,9.22
2018-01-01T14:07:17.006Z,9.15
2018-01-01T14:08:26.703Z,9.18
2018-01-01T14:09:36.405Z,9.09
2018-01-01T14:10:46.090Z,9.08
2018-01-01T14:11:55.533Z,9.12
2018-01-01T14:13:04.974Z,9.08
2018-01-01T14:14:14.916Z,9.12
2018-01-01T14:15:24.861Z,9.09
2018-01-01T14:16:34.820Z,9.12
2018-01-01T14:17:44.786Z,9.09
2018-01-01T14:18:54.505Z,9.03
2018-01-01T14:20:04.503Z,9.03
2018-01-01T14:21:14.458Z,9.09
2018-01-01T14:22:24.418Z,9.02
2018-01-01T14:23:34.372Z,9.12
2018-01-01T14:24:44.360Z,8.92
2018-01-01T14:25:54.311Z,8.93
2018-01-01T14:27:04.266Z,8.93
2018-01-01T14:28:13.961Z,8.95
2018-01-01T14:29:23.908Z,8.87
2018-01-01T14:30:33.617Z,8.86
2018-01-01T14:31:43.325Z,8.84
2018-01-01T14:32:53.265Z,8.9
2018-01-01T14:34:03.282Z,8.79
2018-01-01T14:35:13.223Z,8.84
2018-01-01T14:36:23.192Z,8.86
2018-01-01T14:37:33.156Z,8.79
2018-01-01T14:38:43.111Z,8.74
2018-01-01T14:39:52.805Z,8.78
2018-01-01T14:41:02.760Z,8.74
2018-01-01T14:42:12.732Z,8.78
2018-01-01T14:43:22.676Z,8.77
2018-01-01T14:44:32.642Z,8.75
2018-01-01T14:45:42.622Z,8.71
2018-01-01T14:46:52.593Z,8.77
2018-01-01T14:48:02.549Z,8.72
2018-01-01T14:49:12.521Z,8.63
2018-01-01T14:50:22.481Z,8.72
2018-01-01T14:51:31.668Z,8.64
2018-01-01T14:52:41.611Z,8.64
2018-01-01T14:53:51.301Z,8.66
2018-01-01T14:55:01.322Z,8.69
2018-01-01T14:56:11.026Z,8.69
2018-01-01T14:57:20.741Z,8.61
2018-01-01T14:58:30.710Z,8.66
2018-01-01T14:59:40.414Z,8.66
2018-01-01T15:00:50.384Z,8.61
2018-01-01T15:02:00.330Z,8.56
2018-01-01T15:03:09.780Z,8.54
2018-01-01T15:04:19.734Z,8.52
2018-01-01T15:05:29.167Z,8.61
2018-01-01T15:06:39.027Z,8.59
2018-01-01T15:07:48.994Z,8.6
2018-01-01T15:08:58.455Z,8.44
2018-01-01T15:10:08.404Z,8.49
2018-01-01T15:11:18.361Z,8.44
2018-01-01T15:12:27.786Z,8.53
2018-01-01T15:13:37.488Z,8.46
2018-01-01T15:14:46.922Z,8.44
2018-01-01T15:15:56.635Z,8.49
2018-01-01T15:17:06.847Z,8.44